createdAt,value
2023-08-29T00:00:40.757Z,13.22
2023-08-29T00:05:42.263Z,13.23
2023-08-29T00:10:44.581Z,13.24
2023-08-29T00:15:46.111Z,13.20
2023-08-29T00:20:47.601Z,13.21
2023-08-29T00:25:51.341Z,13.17
2023-08-29T00:30:54.357Z,13.17
2023-08-29T00:35:55.873Z,13.15
2023-08-29T00:40:57.409Z,13.16
2023-08-29T00:46:00.124Z,13.11
2023-08-29T00:51:01.754Z,13.08
2023-08-29T00:56:05.531Z,13.05
2023-08-29T01:01:07.111Z,12.97
2023-08-29T01:06:08.616Z,12.92
2023-08-29T01:12:07.412Z,12.84
2023-08-29T01:17:17.735Z,12.75
2023-08-29T01:22:43.288Z,12.69
2023-08-29T01:27:46.497Z,12.66
2023-08-29T01:32:48.260Z,12.59
2023-08-29T01:37:49.849Z,12.58
2023-08-29T01:42:51.346Z,12.55
2023-08-29T01:47:52.862Z,12.58
2023-08-29T01:52:54.631Z,12.52
2023-08-29T01:58:03.636Z,12.55
2023-08-29T02:03:05.720Z,12.52
2023-08-29T02:08:07.490Z,12.47
2023-08-29T02:13:10.733Z,12.38
2023-08-29T02:18:12.230Z,12.32
2023-08-29T02:23:13.708Z,12.27
2023-08-29T02:28:15.464Z,12.22
2023-08-29T02:33:16.977Z,12.15
2023-08-29T02:38:18.463Z,12.15
2023-08-29T02:43:20.006Z,12.15
2023-08-29T02:48:21.669Z,12.15
2023-08-29T02:53:23.283Z,12.13
2023-08-29T02:58:24.860Z,12.16
2023-08-29T03:03:27.608Z,12.18
2023-08-29T03:08:29.320Z,12.22
2023-08-29T03:13:32.031Z,12.23
2023-08-29T03:18:33.526Z,12.26
2023-08-29T03:23:36.141Z,12.32
2023-08-29T03:28:38.438Z,12.38
2023-08-29T03:33:41.416Z,12.43
2023-08-29T03:38:43.784Z,12.57
2023-08-29T03:43:45.359Z,12.66
2023-08-29T03:48:46.795Z,12.77
2023-08-29T03:53:48.230Z,12.85
2023-08-29T03:58:50.366Z,12.94
2023-08-29T04:03:54.236Z,13.00
2023-08-29T04:08:55.969Z,13.03
2023-08-29T04:13:57.617Z,13.08
2023-08-29T04:18:59.127Z,13.16
2023-08-29T04:24:00.990Z,13.22
2023-08-29T04:29:02.597Z,13.27
2023-08-29T04:34:04.168Z,13.28
2023-08-29T04:39:07.326Z,13.25
2023-08-29T04:44:09.372Z,13.30
2023-08-29T04:49:10.915Z,13.35
2023-08-29T04:54:12.448Z,13.39
2023-08-29T04:59:14.006Z,13.45
2023-08-29T05:04:15.470Z,13.44
2023-08-29T05:09:19.008Z,13.45
2023-08-29T05:14:22.077Z,13.43
2023-08-29T05:19:23.622Z,13.42
2023-08-29T05:24:25.091Z,13.44
2023-08-29T05:29:26.667Z,13.50
2023-08-29T05:34:28.196Z,13.57
2023-08-29T05:39:29.656Z,13.68
2023-08-29T05:44:31.158Z,13.74
2023-08-29T05:49:32.756Z,13.84
2023-08-29T05:54:37.554Z,13.92
2023-08-29T05:59:39.070Z,14.01
2023-08-29T06:04:40.595Z,14.14
2023-08-29T06:09:42.482Z,14.31
2023-08-29T06:14:43.950Z,14.44
2023-08-29T06:19:45.563Z,14.58
2023-08-29T06:24:50.327Z,14.70
2023-08-29T06:29:51.808Z,14.85
2023-08-29T06:34:53.491Z,14.90
2023-08-29T06:39:55.010Z,14.97
2023-08-29T06:44:58.854Z,15.14
2023-08-29T06:50:00.954Z,15.26
2023-08-29T06:55:04.103Z,15.45
2023-08-29T07:00:06.084Z,15.64
2023-08-29T07:05:08.201Z,15.76
2023-08-29T07:10:10.335Z,15.80
2023-08-29T07:15:11.881Z,15.80
2023-08-29T07:20:13.357Z,15.81
2023-08-29T07:25:15.997Z,15.84
2023-08-29T07:30:17.596Z,15.94
2023-08-29T07:35:19.123Z,16.05
2023-08-29T07:40:20.708Z,16.26
2023-08-29T07:45:22.323Z,16.50
2023-08-29T07:50:24.066Z,16.75
2023-08-29T07:55:25.623Z,16.96
2023-08-29T08:00:29.370Z,17.18
2023-08-29T08:05:31.331Z,17.35
2023-08-29T08:10:34.858Z,17.50
2023-08-29T08:15:36.785Z,17.67
2023-08-29T08:20:38.408Z,17.96
2023-08-29T08:25:39.997Z,18.16
2023-08-29T08:30:41.605Z,18.29
2023-08-29T08:35:55.715Z,18.42
2023-08-29T08:40:59.182Z,18.56
2023-08-29T08:46:01.098Z,18.71
2023-08-29T08:51:05.304Z,18.82
2023-08-29T08:56:09.426Z,18.95
2023-08-29T09:01:11.084Z,19.17
2023-08-29T09:06:15.591Z,19.38
2023-08-29T09:11:21.146Z,19.55
2023-08-29T09:16:22.977Z,19.68
2023-08-29T09:21:25.832Z,19.74
2023-08-29T09:26:35.988Z,19.94
2023-08-29T09:31:37.632Z,20.01
2023-08-29T09:36:39.770Z,19.75
2023-08-29T09:41:41.496Z,19.51
2023-08-29T09:46:45.294Z,19.22
2023-08-29T09:51:46.877Z,19.03
2023-08-29T09:56:48.756Z,19.21
2023-08-29T10:01:52.924Z,19.22
2023-08-29T10:06:58.061Z,19.11
2023-08-29T10:12:00.075Z,19.13
2023-08-29T10:17:04.474Z,19.03
2023-08-29T10:22:11.981Z,18.98
2023-08-29T10:27:13.423Z,18.99
2023-08-29T10:32:16.686Z,18.82
2023-08-29T10:37:19.741Z,18.85
2023-08-29T10:42:21.325Z,18.88
2023-08-29T10:47:32.434Z,18.95
2023-08-29T10:52:42.745Z,19.06
2023-08-29T10:57:44.380Z,19.22
2023-08-29T11:02:46.076Z,19.36
2023-08-29T11:07:48.096Z,19.60
2023-08-29T11:13:09.389Z,19.70
2023-08-29T11:18:27.777Z,19.90
2023-08-29T11:23:34.644Z,19.87
2023-08-29T11:28:43.825Z,19.87
2023-08-29T11:33:50.672Z,19.90
2023-08-29T11:38:52.884Z,20.01
2023-08-29T11:44:30.875Z,20.20
2023-08-29T11:49:17.438Z,20.40
2023-08-29T11:54:48.543Z,20.51
2023-08-29T11:59:52.924Z,20.59
2023-08-29T12:04:59.165Z,20.81
2023-08-29T12:10:28.288Z,20.73
2023-08-29T12:15:43.764Z,20.69
2023-08-29T12:20:46.121Z,20.50
2023-08-29T12:25:47.662Z,20.28
2023-08-29T12:30:49.361Z,20.32
2023-08-29T12:35:51.808Z,20.32
2023-08-29T12:40:54.241Z,20.28
2023-08-29T12:46:00.351Z,20.12
2023-08-29T12:51:03.499Z,20.12
2023-08-29T12:56:05.123Z,20.05
2023-08-29T13:01:07.300Z,20.06
2023-08-29T13:06:09.065Z,20.11
2023-08-29T13:11:10.553Z,20.02
2023-08-29T13:16:12.233Z,19.97
2023-08-29T13:21:13.776Z,19.90
2023-08-29T13:26:15.268Z,19.84
2023-08-29T13:31:18.061Z,19.69
2023-08-29T13:36:19.797Z,19.53
2023-08-29T13:41:21.282Z,19.39
2023-08-29T13:46:22.878Z,19.19
2023-08-29T13:51:24.349Z,19.07
2023-08-29T13:56:25.865Z,18.95
2023-08-29T14:01:27.327Z,18.87
2023-08-29T14:06:28.998Z,18.68
2023-08-29T14:11:30.458Z,18.47
2023-08-29T14:16:32.026Z,18.46
2023-08-29T14:21:33.541Z,18.46
2023-08-29T14:26:35.022Z,18.48
2023-08-29T14:31:37.055Z,18.59
2023-08-29T14:36:38.541Z,18.71
2023-08-29T14:41:43.280Z,18.83
2023-08-29T14:46:44.882Z,18.79
2023-08-29T14:51:47.303Z,18.64
2023-08-29T14:56:50.098Z,18.47
2023-08-29T15:01:52.167Z,18.41
2023-08-29T15:06:53.727Z,18.43
2023-08-29T15:11:55.212Z,18.45
2023-08-29T15:16:56.737Z,18.51
2023-08-29T15:21:58.224Z,18.60
2023-08-29T15:26:59.733Z,18.72
2023-08-29T15:32:01.264Z,18.84
2023-08-29T15:37:05.561Z,18.90
2023-08-29T15:42:07.393Z,18.91
2023-08-29T15:47:09.307Z,18.96
2023-08-29T15:52:10.887Z,18.93
2023-08-29T15:57:14.771Z,18.98
2023-08-29T16:02:16.275Z,19.01
2023-08-29T16:07:17.708Z,18.98
2023-08-29T16:12:19.205Z,18.94
2023-08-29T16:17:20.806Z,18.90
2023-08-29T16:22:22.274Z,18.93
2023-08-29T16:27:23.919Z,18.88
2023-08-29T16:32:25.437Z,18.87
2023-08-29T16:37:27.001Z,18.78
2023-08-29T16:42:28.998Z,18.73
2023-08-29T16:47:32.091Z,18.70
2023-08-29T16:52:33.668Z,18.57
2023-08-29T16:57:35.164Z,18.58
2023-08-29T17:02:37.706Z,18.45
2023-08-29T17:07:39.535Z,18.42
2023-08-29T17:12:41.071Z,18.36
2023-08-29T17:17:42.899Z,18.20
2023-08-29T17:22:44.942Z,18.09
2023-08-29T17:27:46.573Z,18.02
2023-08-29T17:32:48.181Z,17.95
2023-08-29T17:37:49.825Z,17.78
2023-08-29T17:42:51.522Z,17.64
2023-08-29T17:47:53.908Z,17.55
2023-08-29T17:52:55.417Z,17.43
2023-08-29T17:57:56.934Z,17.29
2023-08-29T18:02:58.475Z,17.10
2023-08-29T18:08:00.053Z,16.95
2023-08-29T18:13:01.496Z,16.85
2023-08-29T18:18:25.818Z,16.68
2023-08-29T18:23:28.472Z,16.58
2023-08-29T18:28:30.481Z,16.44
2023-08-29T18:33:32.292Z,16.30
2023-08-29T18:38:35.729Z,16.25
2023-08-29T18:43:37.182Z,16.13
2023-08-29T18:48:38.646Z,15.98
2023-08-29T18:53:40.617Z,15.87
2023-08-29T18:58:42.167Z,15.78
2023-08-29T19:03:44.316Z,15.70
2023-08-29T19:08:45.795Z,15.56
2023-08-29T19:13:47.233Z,15.40
2023-08-29T19:18:48.814Z,15.31
2023-08-29T19:23:50.662Z,15.23
2023-08-29T19:28:52.188Z,15.14
2023-08-29T19:33:53.700Z,15.06
2023-08-29T19:39:04.949Z,15.00
2023-08-29T19:44:09.856Z,14.86
2023-08-29T19:49:11.621Z,14.84
2023-08-29T19:54:13.225Z,14.85
2023-08-29T19:59:14.842Z,14.86
2023-08-29T20:04:16.375Z,14.95
2023-08-29T20:09:17.933Z,15.00
2023-08-29T20:14:19.454Z,15.07
2023-08-29T20:19:23.710Z,15.14
2023-08-29T20:24:25.152Z,15.20
2023-08-29T20:29:26.622Z,15.26
2023-08-29T20:34:28.119Z,15.28
2023-08-29T20:39:29.616Z,15.27
2023-08-29T20:44:31.900Z,15.19
2023-08-29T20:49:33.377Z,15.12
2023-08-29T20:54:38.210Z,14.99
2023-08-29T20:59:40.531Z,14.84
2023-08-29T21:04:42.098Z,14.83
2023-08-29T21:09:43.599Z,14.77
2023-08-29T21:14:49.695Z,14.68
2023-08-29T21:19:51.243Z,14.60
2023-08-29T21:24:52.894Z,14.61
2023-08-29T21:29:54.395Z,14.69
2023-08-29T21:34:56.039Z,14.72
2023-08-29T21:39:57.558Z,14.77
2023-08-29T21:44:59.037Z,14.81
2023-08-29T21:50:00.534Z,14.85
2023-08-29T21:55:02.062Z,14.83
2023-08-29T22:00:08.242Z,14.83
2023-08-29T22:05:10.190Z,14.86
2023-08-29T22:10:13.554Z,14.96
2023-08-29T22:15:15.402Z,15.00
2023-08-29T22:20:17.013Z,15.08
2023-08-29T22:25:18.713Z,15.06
2023-08-29T22:30:20.214Z,15.08
2023-08-29T22:35:21.900Z,15.10
2023-08-29T22:40:23.387Z,15.01
2023-08-29T22:45:24.905Z,14.90
2023-08-29T22:50:26.341Z,14.79
2023-08-29T22:55:28.008Z,14.69
2023-08-29T23:00:29.530Z,14.57
2023-08-29T23:05:31.120Z,14.45
2023-08-29T23:10:32.867Z,14.32
2023-08-29T23:15:35.165Z,14.27
2023-08-29T23:20:36.679Z,14.18
2023-08-29T23:25:38.142Z,14.13
2023-08-29T23:30:39.604Z,14.02
2023-08-29T23:35:41.043Z,13.99
2023-08-29T23:40:48.033Z,13.97
2023-08-29T23:45:49.886Z,13.96
2023-08-29T23:50:51.357Z,13.95
2023-08-29T23:55:52.811Z,13.92
